createdAt,value
2023-02-23T00:00:13.533Z,11.00
2023-02-23T00:00:46.201Z,11.30
2023-02-23T00:01:19.197Z,10.70
2023-02-23T00:01:45.503Z,11.40
2023-02-23T00:02:18.179Z,11.00
2023-02-23T00:02:50.996Z,10.60
2023-02-23T00:03:23.736Z,11.10
2023-02-23T00:03:56.379Z,11.60
2023-02-23T00:04:29.041Z,10.80
2023-02-23T00:05:01.725Z,11.30
2023-02-23T00:05:34.389Z,11.50
2023-02-23T00:06:07.063Z,11.40
2023-02-23T00:06:39.756Z,11.40
2023-02-23T00:07:12.459Z,11.50
2023-02-23T00:07:45.099Z,11.20
2023-02-23T00:08:17.816Z,11.40
2023-02-23T00:08:50.472Z,11.20
2023-02-23T00:09:23.191Z,10.70
2023-02-23T00:09:55.879Z,11.10
2023-02-23T00:10:28.558Z,11.70
2023-02-23T00:11:01.217Z,11.50
2023-02-23T00:11:33.893Z,11.40
2023-02-23T00:12:06.551Z,11.40
2023-02-23T00:12:39.226Z,10.90
2023-02-23T00:13:11.882Z,11.20
2023-02-23T00:13:42.979Z,11.20
2023-02-23T00:14:15.645Z,10.90
2023-02-23T00:14:48.321Z,11.10
2023-02-23T00:15:20.992Z,11.50
2023-02-23T00:15:53.661Z,11.10
2023-02-23T00:16:26.385Z,10.90
2023-02-23T00:16:59.048Z,10.90
2023-02-23T00:17:31.741Z,11.30
2023-02-23T00:18:04.434Z,11.30
2023-02-23T00:18:37.090Z,10.90
2023-02-23T00:19:09.899Z,11.40
2023-02-23T00:19:42.585Z,11.50
2023-02-23T00:20:15.292Z,11.20
2023-02-23T00:20:47.966Z,11.30
2023-02-23T00:21:20.971Z,11.50
2023-02-23T00:21:47.214Z,11.00
2023-02-23T00:22:19.919Z,11.80
2023-02-23T00:22:52.568Z,11.00
2023-02-23T00:23:25.236Z,11.30
2023-02-23T00:23:57.905Z,11.60
2023-02-23T00:24:30.576Z,11.40
2023-02-23T00:25:03.197Z,11.00
2023-02-23T00:25:29.478Z,11.70
2023-02-23T00:26:02.127Z,11.40
2023-02-23T00:26:34.798Z,11.40
2023-02-23T00:27:07.470Z,11.40
2023-02-23T00:27:40.128Z,11.10
2023-02-23T00:28:12.807Z,10.80
2023-02-23T00:28:45.503Z,10.90
2023-02-23T00:29:18.175Z,11.70
2023-02-23T00:29:50.833Z,11.20
2023-02-23T00:30:23.512Z,11.20
2023-02-23T00:30:56.730Z,10.90
2023-02-23T00:31:23.803Z,11.00
2023-02-23T00:31:56.574Z,11.60
2023-02-23T00:32:29.448Z,11.10
2023-02-23T00:33:02.122Z,11.20
2023-02-23T00:33:34.827Z,11.10
2023-02-23T00:34:07.511Z,11.40
2023-02-23T00:34:40.172Z,11.70
2023-02-23T00:35:12.892Z,11.70
2023-02-23T00:35:45.538Z,11.40
2023-02-23T00:36:18.212Z,11.60
2023-02-23T00:36:50.883Z,11.60
2023-02-23T00:37:23.584Z,11.20
2023-02-23T00:37:56.229Z,11.40
2023-02-23T00:38:28.959Z,11.10
2023-02-23T00:39:01.602Z,11.20
2023-02-23T00:39:42.255Z,11.50
2023-02-23T00:40:01.966Z,11.50
2023-02-23T00:40:34.626Z,10.90
2023-02-23T00:41:07.297Z,11.30
2023-02-23T00:41:39.967Z,11.00
2023-02-23T00:42:12.648Z,11.30
2023-02-23T00:42:45.329Z,11.70
2023-02-23T00:43:17.989Z,11.90
2023-02-23T00:43:50.662Z,11.70
2023-02-23T00:44:23.346Z,11.40
2023-02-23T00:44:56.011Z,11.40
2023-02-23T00:45:28.696Z,10.90
2023-02-23T00:46:01.369Z,11.00
2023-02-23T00:46:34.045Z,11.80
2023-02-23T00:47:06.717Z,10.80
2023-02-23T00:47:39.388Z,12.40
2023-02-23T00:48:12.051Z,11.70
2023-02-23T00:48:44.740Z,11.20
2023-02-23T00:49:17.386Z,11.80
2023-02-23T00:49:50.063Z,11.80
2023-02-23T00:50:22.775Z,11.80
2023-02-23T00:50:55.427Z,11.10
2023-02-23T00:51:28.104Z,11.30
2023-02-23T00:52:00.759Z,11.50
2023-02-23T00:52:33.442Z,10.90
2023-02-23T00:53:06.122Z,11.10
2023-02-23T00:53:38.763Z,11.20
2023-02-23T00:54:11.435Z,11.80
2023-02-23T00:54:44.109Z,11.00
2023-02-23T00:55:16.803Z,11.10
2023-02-23T00:55:49.469Z,12.20
2023-02-23T00:56:22.158Z,11.50
2023-02-23T00:56:54.820Z,11.30
2023-02-23T00:57:27.482Z,11.00
2023-02-23T00:58:00.136Z,11.80
2023-02-23T00:58:32.799Z,11.50
2023-02-23T00:59:05.467Z,11.70
2023-02-23T00:59:38.165Z,11.90
2023-02-23T01:00:10.832Z,10.90
2023-02-23T01:00:43.498Z,11.50
2023-02-23T01:01:17.258Z,11.40
2023-02-23T01:01:43.798Z,11.10
2023-02-23T01:02:16.568Z,11.50
2023-02-23T01:02:49.227Z,11.30
2023-02-23T01:03:21.895Z,11.60
2023-02-23T01:03:54.567Z,11.80
2023-02-23T01:04:27.231Z,11.30
2023-02-23T01:04:59.925Z,11.90
2023-02-23T01:05:32.623Z,12.10
2023-02-23T01:06:05.275Z,11.60
2023-02-23T01:06:37.992Z,12.00
2023-02-23T01:07:10.646Z,11.70
2023-02-23T01:07:43.465Z,12.30
2023-02-23T01:08:16.097Z,11.50
2023-02-23T01:08:48.794Z,11.10
2023-02-23T01:09:21.446Z,11.40
2023-02-23T01:09:54.139Z,11.70
2023-02-23T01:10:26.818Z,11.30
2023-02-23T01:10:59.479Z,11.70
2023-02-23T01:11:32.154Z,11.30
2023-02-23T01:12:04.838Z,12.00
2023-02-23T01:12:37.489Z,11.30
2023-02-23T01:13:10.180Z,11.90
2023-02-23T01:13:42.852Z,11.60
2023-02-23T01:14:15.526Z,11.70
2023-02-23T01:14:48.208Z,11.70
2023-02-23T01:15:21.125Z,11.70
2023-02-23T01:15:51.984Z,11.70
2023-02-23T01:16:24.642Z,11.40
2023-02-23T01:16:57.315Z,11.90
2023-02-23T01:17:30.003Z,11.70
2023-02-23T01:18:02.717Z,11.00
2023-02-23T01:18:35.418Z,11.80
2023-02-23T01:19:08.081Z,11.70
2023-02-23T01:19:40.763Z,11.50
2023-02-23T01:20:13.424Z,11.00
2023-02-23T01:20:46.094Z,11.20
2023-02-23T01:21:19.212Z,11.20
2023-02-23T01:21:45.537Z,11.50
2023-02-23T01:22:18.191Z,11.70
2023-02-23T01:22:50.886Z,11.10
2023-02-23T01:23:23.534Z,11.60
2023-02-23T01:23:56.212Z,12.00
2023-02-23T01:24:28.893Z,11.60
2023-02-23T01:25:01.593Z,11.40
2023-02-23T01:25:34.235Z,11.20
2023-02-23T01:26:06.909Z,11.90
2023-02-23T01:26:39.591Z,11.00
2023-02-23T01:27:12.270Z,11.10
2023-02-23T01:27:44.946Z,11.60
2023-02-23T01:28:17.633Z,11.80
2023-02-23T01:28:50.298Z,11.10
2023-02-23T01:29:22.967Z,11.10
2023-02-23T01:29:55.648Z,12.00
2023-02-23T01:30:28.329Z,11.90
2023-02-23T01:31:01.122Z,11.30
2023-02-23T01:31:34.147Z,11.80
2023-02-23T01:32:02.645Z,11.80
2023-02-23T01:32:30.314Z,11.60
2023-02-23T01:33:02.982Z,12.00
2023-02-23T01:33:35.661Z,11.50
2023-02-23T01:34:08.335Z,11.20
2023-02-23T01:34:41.034Z,12.20
2023-02-23T01:35:13.722Z,11.20
2023-02-23T01:35:46.380Z,11.10
2023-02-23T01:36:19.079Z,11.00
2023-02-23T01:36:51.742Z,11.50
2023-02-23T01:37:24.420Z,11.60
2023-02-23T01:37:57.129Z,11.50
2023-02-23T01:38:29.778Z,11.20
2023-02-23T01:39:02.439Z,11.50
2023-02-23T01:39:35.107Z,11.20
2023-02-23T01:40:07.796Z,11.70
2023-02-23T01:40:40.473Z,11.30
2023-02-23T01:41:13.183Z,11.40
2023-02-23T01:41:45.835Z,11.70
2023-02-23T01:42:18.486Z,11.30
2023-02-23T01:42:51.146Z,11.40
2023-02-23T01:43:23.817Z,11.80
2023-02-23T01:43:56.482Z,10.90
2023-02-23T01:44:29.141Z,11.80
2023-02-23T01:45:01.846Z,11.70
2023-02-23T01:45:34.500Z,11.50
2023-02-23T01:46:07.199Z,11.20
2023-02-23T01:46:39.934Z,11.20
2023-02-23T01:47:12.590Z,11.80
2023-02-23T01:47:45.291Z,11.60
2023-02-23T01:48:17.953Z,11.90
2023-02-23T01:48:50.609Z,11.50
2023-02-23T01:49:23.268Z,11.70
2023-02-23T01:49:55.991Z,11.60
2023-02-23T01:50:28.639Z,11.60
2023-02-23T01:51:01.312Z,11.60
2023-02-23T01:51:34.049Z,12.10
2023-02-23T01:52:06.752Z,11.10
2023-02-23T01:52:39.402Z,12.10
2023-02-23T01:53:12.278Z,11.30
2023-02-23T01:53:44.912Z,11.10
2023-02-23T01:54:17.614Z,11.70
2023-02-23T01:54:50.291Z,11.60
2023-02-23T01:55:22.957Z,11.70
2023-02-23T01:55:55.629Z,11.60
2023-02-23T01:56:28.297Z,12.00
2023-02-23T01:57:00.964Z,11.50
2023-02-23T01:57:33.627Z,11.40
2023-02-23T01:58:06.327Z,11.80
2023-02-23T01:58:38.971Z,11.50
2023-02-23T01:59:11.650Z,11.30
2023-02-23T01:59:44.317Z,12.00
2023-02-23T02:00:16.990Z,10.90
2023-02-23T02:00:49.650Z,11.70
2023-02-23T02:01:22.359Z,12.20
2023-02-23T02:01:55.050Z,11.20
2023-02-23T02:02:27.712Z,11.70
2023-02-23T02:03:00.379Z,11.10
2023-02-23T02:03:33.053Z,11.70
2023-02-23T02:04:05.725Z,11.70
2023-02-23T02:04:38.438Z,11.90
2023-02-23T02:05:09.538Z,11.70
2023-02-23T02:05:42.182Z,11.80
2023-02-23T02:06:14.861Z,11.60
2023-02-23T02:06:47.513Z,11.50
2023-02-23T02:07:20.179Z,12.20
2023-02-23T02:07:52.868Z,11.60
2023-02-23T02:08:25.548Z,11.50
2023-02-23T02:08:58.182Z,11.80
2023-02-23T02:09:30.852Z,12.20
2023-02-23T02:10:03.541Z,12.00
2023-02-23T02:10:36.210Z,12.20
2023-02-23T02:11:08.890Z,11.30
2023-02-23T02:11:41.539Z,11.70
2023-02-23T02:12:14.212Z,12.00
2023-02-23T02:12:46.892Z,11.40
2023-02-23T02:13:19.559Z,11.80
2023-02-23T02:13:52.228Z,11.10
2023-02-23T02:14:24.917Z,10.90
2023-02-23T02:14:57.589Z,11.80
2023-02-23T02:15:30.283Z,12.30
2023-02-23T02:16:02.940Z,11.30
2023-02-23T02:16:35.586Z,11.70
2023-02-23T02:17:08.254Z,11.50
2023-02-23T02:17:40.917Z,11.90
2023-02-23T02:18:13.591Z,11.00
2023-02-23T02:18:46.283Z,12.10
2023-02-23T02:19:18.921Z,11.50
2023-02-23T02:19:51.599Z,11.40
2023-02-23T02:20:24.284Z,11.80
2023-02-23T02:20:56.954Z,12.00
2023-02-23T02:21:29.628Z,11.50
2023-02-23T02:22:02.308Z,11.40
2023-02-23T02:22:34.961Z,11.40
2023-02-23T02:23:07.640Z,12.50
2023-02-23T02:23:40.378Z,11.60
2023-02-23T02:24:13.010Z,12.00
2023-02-23T02:24:45.714Z,11.90
2023-02-23T02:25:18.396Z,11.20
2023-02-23T02:25:51.050Z,11.10
2023-02-23T02:26:23.720Z,11.10
2023-02-23T02:26:56.389Z,11.80
2023-02-23T02:27:29.055Z,12.70
2023-02-23T02:28:01.721Z,11.90
2023-02-23T02:28:34.443Z,11.80
2023-02-23T02:29:07.081Z,12.30
2023-02-23T02:29:39.741Z,11.70
2023-02-23T02:30:12.439Z,11.90
2023-02-23T02:30:45.172Z,11.90
2023-02-23T02:31:18.147Z,11.80
2023-02-23T02:31:44.533Z,11.90
2023-02-23T02:32:17.233Z,12.40
2023-02-23T02:32:49.904Z,11.20
2023-02-23T02:33:22.572Z,12.20
2023-02-23T02:33:55.243Z,12.00
2023-02-23T02:34:27.919Z,11.60
2023-02-23T02:35:00.642Z,11.50
2023-02-23T02:35:33.305Z,11.20
2023-02-23T02:36:05.957Z,11.60
2023-02-23T02:36:38.627Z,12.10
2023-02-23T02:37:11.300Z,11.90
2023-02-23T02:37:43.972Z,11.60
2023-02-23T02:38:16.657Z,11.70
2023-02-23T02:38:49.326Z,12.50
2023-02-23T02:39:21.970Z,11.80
2023-02-23T02:39:54.641Z,12.30
2023-02-23T02:40:27.325Z,11.80
2023-02-23T02:40:59.995Z,12.00
2023-02-23T02:41:32.690Z,12.30
2023-02-23T02:42:05.328Z,12.30
2023-02-23T02:42:37.995Z,12.00
2023-02-23T02:43:10.664Z,11.70
2023-02-23T02:43:43.328Z,12.20
2023-02-23T02:44:15.984Z,11.70
2023-02-23T02:44:48.689Z,11.50
2023-02-23T02:45:19.755Z,11.70
2023-02-23T02:45:52.523Z,12.10
2023-02-23T02:46:25.286Z,12.40
2023-02-23T02:46:57.952Z,11.80
2023-02-23T02:47:30.607Z,11.80
2023-02-23T02:48:03.314Z,12.20
2023-02-23T02:48:35.961Z,12.10
2023-02-23T02:49:08.625Z,11.40
2023-02-23T02:49:41.296Z,12.50
2023-02-23T02:50:13.984Z,12.00
2023-02-23T02:50:46.645Z,11.70
2023-02-23T02:51:19.671Z,11.70
2023-02-23T02:51:45.978Z,11.60
2023-02-23T02:52:18.643Z,12.10
2023-02-23T02:52:51.313Z,12.80
2023-02-23T02:53:23.995Z,11.50
2023-02-23T02:53:56.687Z,11.60
2023-02-23T02:54:29.353Z,11.30
2023-02-23T02:55:02.038Z,11.80
2023-02-23T02:55:34.699Z,12.60
2023-02-23T02:56:07.357Z,11.60
2023-02-23T02:56:40.039Z,11.50
2023-02-23T02:57:12.706Z,12.30
2023-02-23T02:57:45.367Z,11.80
2023-02-23T02:58:18.071Z,11.80
2023-02-23T02:58:50.711Z,11.50
2023-02-23T02:59:23.381Z,12.10
2023-02-23T02:59:56.069Z,12.10
2023-02-23T03:00:28.740Z,12.30
2023-02-23T03:01:01.398Z,12.20
2023-02-23T03:01:34.155Z,11.70
2023-02-23T03:02:06.801Z,11.90
2023-02-23T03:02:39.468Z,11.90
2023-02-23T03:03:12.157Z,11.90
2023-02-23T03:03:44.834Z,12.20
2023-02-23T03:04:17.504Z,12.10
2023-02-23T03:04:50.288Z,11.70
2023-02-23T03:05:22.995Z,12.50
2023-02-23T03:05:55.633Z,11.70
2023-02-23T03:06:28.310Z,12.40
2023-02-23T03:07:00.979Z,12.00
2023-02-23T03:07:33.651Z,11.80
2023-02-23T03:08:06.347Z,12.20
2023-02-23T03:08:38.993Z,12.20
2023-02-23T03:09:11.701Z,12.10
2023-02-23T03:09:44.335Z,12.10
2023-02-23T03:10:17.029Z,12.60
2023-02-23T03:10:49.696Z,11.90
2023-02-23T03:11:22.391Z,12.60
2023-02-23T03:11:55.064Z,12.60
2023-02-23T03:12:27.738Z,11.50
2023-02-23T03:13:00.406Z,12.80
2023-02-23T03:13:33.089Z,11.80
2023-02-23T03:14:05.764Z,12.60
2023-02-23T03:14:38.452Z,11.90
2023-02-23T03:15:11.117Z,12.10
2023-02-23T03:15:43.799Z,12.30
2023-02-23T03:16:16.601Z,12.60
2023-02-23T03:16:49.255Z,12.10
2023-02-23T03:17:21.927Z,12.60
2023-02-23T03:17:54.623Z,12.20
2023-02-23T03:18:27.296Z,12.00
2023-02-23T03:18:59.934Z,11.70
2023-02-23T03:19:32.599Z,12.40
2023-02-23T03:20:05.281Z,12.00
2023-02-23T03:20:37.952Z,12.00
2023-02-23T03:21:10.612Z,11.80
2023-02-23T03:21:43.327Z,12.40
2023-02-23T03:22:16.067Z,12.40
2023-02-23T03:22:48.733Z,12.60
2023-02-23T03:23:21.421Z,12.10
2023-02-23T03:23:54.099Z,12.50
2023-02-23T03:24:26.810Z,12.40
2023-02-23T03:24:59.490Z,12.10
2023-02-23T03:25:32.155Z,12.00
2023-02-23T03:26:04.835Z,12.60
2023-02-23T03:26:37.498Z,12.10
2023-02-23T03:27:10.176Z,12.50
2023-02-23T03:27:42.853Z,12.50
2023-02-23T03:28:15.582Z,12.10
2023-02-23T03:28:48.213Z,12.40
2023-02-23T03:29:20.887Z,12.30
2023-02-23T03:29:53.557Z,12.60
2023-02-23T03:30:26.301Z,12.40
2023-02-23T03:30:58.991Z,12.20
2023-02-23T03:31:31.748Z,12.40
2023-02-23T03:32:04.539Z,12.40
2023-02-23T03:32:37.363Z,12.40
2023-02-23T03:33:10.037Z,12.80
2023-02-23T03:33:42.705Z,12.50
2023-02-23T03:34:15.373Z,11.80
2023-02-23T03:34:48.060Z,12.70
2023-02-23T03:35:20.725Z,12.50
2023-02-23T03:35:53.394Z,12.10
2023-02-23T03:36:26.074Z,12.40
2023-02-23T03:36:58.737Z,12.60
2023-02-23T03:37:31.408Z,12.20
2023-02-23T03:38:04.084Z,12.00
2023-02-23T03:38:36.738Z,12.30
2023-02-23T03:39:09.404Z,12.50
2023-02-23T03:39:42.091Z,12.50
2023-02-23T03:40:14.751Z,12.60
2023-02-23T03:40:47.426Z,12.40
2023-02-23T03:41:20.518Z,12.50
2023-02-23T03:41:46.829Z,11.80
2023-02-23T03:42:19.495Z,12.50
2023-02-23T03:42:52.173Z,12.90
2023-02-23T03:43:24.850Z,12.60
2023-02-23T03:43:57.519Z,12.30
2023-02-23T03:44:30.219Z,12.20
2023-02-23T03:45:02.894Z,12.70
2023-02-23T03:45:35.623Z,12.40
2023-02-23T03:46:08.279Z,12.70
2023-02-23T03:46:40.953Z,12.90
2023-02-23T03:47:13.636Z,12.40
2023-02-23T03:47:46.320Z,12.20
2023-02-23T03:48:19.000Z,12.50
2023-02-23T03:48:51.643Z,11.90
2023-02-23T03:49:24.313Z,12.30
2023-02-23T03:49:56.989Z,12.70
2023-02-23T03:50:29.673Z,12.30
2023-02-23T03:51:02.331Z,12.90
2023-02-23T03:51:35.020Z,12.40
2023-02-23T03:52:07.706Z,13.10
2023-02-23T03:52:40.376Z,12.70
2023-02-23T03:53:13.037Z,13.10
2023-02-23T03:53:45.707Z,12.80
2023-02-23T03:54:18.375Z,13.00
2023-02-23T03:54:51.075Z,13.00
2023-02-23T03:55:23.729Z,12.50
2023-02-23T03:55:56.402Z,12.50
2023-02-23T03:56:29.079Z,12.10
2023-02-23T03:57:01.744Z,12.20
2023-02-23T03:57:34.407Z,12.30
2023-02-23T03:58:07.075Z,12.70
2023-02-23T03:58:39.767Z,12.70
2023-02-23T03:59:12.413Z,12.60
2023-02-23T03:59:45.073Z,12.40
2023-02-23T04:00:17.762Z,12.10
2023-02-23T04:00:50.430Z,11.90
2023-02-23T04:01:23.103Z,12.00
2023-02-23T04:01:55.878Z,12.80
2023-02-23T04:02:28.510Z,12.10
2023-02-23T04:03:01.185Z,12.90
2023-02-23T04:03:33.909Z,12.70
2023-02-23T04:04:06.563Z,12.40
2023-02-23T04:04:39.245Z,12.00
2023-02-23T04:05:11.944Z,12.60
2023-02-23T04:05:44.594Z,12.70
2023-02-23T04:06:17.262Z,13.00
2023-02-23T04:06:49.942Z,12.00
2023-02-23T04:07:22.609Z,12.30
2023-02-23T04:07:55.279Z,12.90
2023-02-23T04:08:28.054Z,12.00
2023-02-23T04:09:00.686Z,12.60
2023-02-23T04:09:33.352Z,12.60
2023-02-23T04:10:06.058Z,12.10
2023-02-23T04:10:38.692Z,12.60
2023-02-23T04:11:11.364Z,12.80
2023-02-23T04:11:44.059Z,12.20
2023-02-23T04:12:16.694Z,12.60
2023-02-23T04:12:49.355Z,12.10
2023-02-23T04:13:22.030Z,12.60
2023-02-23T04:13:54.697Z,13.30
2023-02-23T04:14:27.372Z,11.90
2023-02-23T04:15:00.066Z,11.90
2023-02-23T04:15:32.724Z,13.00
2023-02-23T04:16:05.400Z,13.00
2023-02-23T04:16:38.192Z,12.30
2023-02-23T04:17:10.869Z,12.30
2023-02-23T04:17:43.539Z,12.70
2023-02-23T04:18:16.209Z,11.90
2023-02-23T04:18:48.919Z,12.50
2023-02-23T04:19:21.561Z,12.40
2023-02-23T04:19:54.231Z,12.20
2023-02-23T04:20:26.906Z,12.40
2023-02-23T04:20:59.672Z,12.40
2023-02-23T04:21:32.348Z,12.50
2023-02-23T04:22:05.030Z,12.00
2023-02-23T04:22:37.686Z,12.80
2023-02-23T04:23:10.360Z,12.70
2023-02-23T04:23:43.041Z,13.10
2023-02-23T04:24:15.724Z,12.70
2023-02-23T04:24:48.366Z,12.10
2023-02-23T04:25:21.092Z,12.40
2023-02-23T04:25:53.725Z,12.70
2023-02-23T04:26:26.413Z,12.30
2023-02-23T04:26:59.086Z,13.00
2023-02-23T04:27:31.755Z,12.90
2023-02-23T04:28:04.424Z,12.20
2023-02-23T04:28:37.127Z,12.60
2023-02-23T04:29:09.770Z,12.60
2023-02-23T04:29:42.443Z,12.60
2023-02-23T04:30:15.141Z,12.80
2023-02-23T04:30:47.833Z,12.80
2023-02-23T04:31:22.821Z,12.40
2023-02-23T04:31:50.568Z,12.70
2023-02-23T04:32:21.701Z,12.70
2023-02-23T04:32:54.401Z,12.00
2023-02-23T04:33:27.065Z,12.50
2023-02-23T04:33:59.732Z,11.90
2023-02-23T04:34:32.403Z,12.70
2023-02-23T04:35:05.181Z,12.50
2023-02-23T04:35:37.827Z,13.20
2023-02-23T04:36:10.503Z,12.20
2023-02-23T04:36:43.177Z,12.40
2023-02-23T04:37:14.276Z,13.20
2023-02-23T04:37:46.939Z,12.30
2023-02-23T04:38:19.643Z,12.50
2023-02-23T04:38:52.289Z,12.90
2023-02-23T04:39:24.966Z,12.70
2023-02-23T04:39:57.669Z,13.10
2023-02-23T04:40:30.417Z,12.30
2023-02-23T04:41:03.044Z,12.40
2023-02-23T04:41:35.744Z,12.40
2023-02-23T04:42:08.399Z,12.30
2023-02-23T04:42:41.064Z,12.50
2023-02-23T04:43:13.739Z,12.20
2023-02-23T04:43:46.399Z,12.50
2023-02-23T04:44:19.068Z,12.70
2023-02-23T04:44:51.732Z,12.80
2023-02-23T04:45:24.416Z,12.40
2023-02-23T04:45:57.220Z,12.80
2023-02-23T04:46:29.950Z,12.40
2023-02-23T04:47:02.604Z,12.10
2023-02-23T04:47:35.275Z,12.30
2023-02-23T04:48:07.976Z,12.30
2023-02-23T04:48:40.611Z,12.60
2023-02-23T04:49:13.287Z,12.80
2023-02-23T04:49:45.949Z,11.90
2023-02-23T04:50:18.665Z,12.50
2023-02-23T04:50:51.308Z,12.90
2023-02-23T04:51:23.982Z,13.00
2023-02-23T04:51:56.651Z,12.60
2023-02-23T04:52:29.333Z,12.60
2023-02-23T04:53:01.999Z,12.70
2023-02-23T04:53:34.694Z,12.70
2023-02-23T04:54:07.347Z,12.00
2023-02-23T04:54:40.014Z,12.80
2023-02-23T04:55:12.709Z,12.10
2023-02-23T04:55:47.361Z,12.10
2023-02-23T04:56:13.574Z,12.70
2023-02-23T04:56:46.294Z,12.30
2023-02-23T04:57:18.952Z,12.70
2023-02-23T04:57:51.621Z,12.70
2023-02-23T04:58:24.293Z,11.90
2023-02-23T04:58:56.961Z,12.70
2023-02-23T04:59:29.639Z,12.70
2023-02-23T05:00:02.328Z,12.70
2023-02-23T05:00:35.031Z,12.60
2023-02-23T05:01:07.741Z,12.40
2023-02-23T05:01:40.459Z,12.30
2023-02-23T05:02:13.101Z,12.90
2023-02-23T05:02:45.771Z,12.80
2023-02-23T05:03:18.464Z,12.60
2023-02-23T05:03:51.100Z,12.50
2023-02-23T05:04:23.774Z,12.80
2023-02-23T05:04:56.539Z,12.70
2023-02-23T05:05:29.209Z,12.70
2023-02-23T05:06:01.877Z,12.90
2023-02-23T05:06:34.570Z,12.50
2023-02-23T05:07:07.225Z,12.10
2023-02-23T05:07:39.908Z,12.70
2023-02-23T05:08:12.583Z,12.30
2023-02-23T05:08:45.253Z,12.20
2023-02-23T05:09:17.923Z,12.40
2023-02-23T05:09:50.655Z,12.70
2023-02-23T05:10:23.322Z,13.00
2023-02-23T05:10:56.001Z,12.40
2023-02-23T05:11:28.661Z,12.70
2023-02-23T05:12:01.337Z,13.10
2023-02-23T05:12:34.003Z,12.70
2023-02-23T05:13:06.694Z,12.70
2023-02-23T05:13:39.341Z,12.30
2023-02-23T05:14:12.011Z,12.10
2023-02-23T05:14:44.683Z,12.50
2023-02-23T05:15:17.362Z,11.90
2023-02-23T05:15:50.057Z,12.80
2023-02-23T05:16:22.758Z,12.30
2023-02-23T05:16:55.400Z,12.50
2023-02-23T05:17:28.079Z,13.00
2023-02-23T05:18:00.751Z,12.80
2023-02-23T05:18:33.420Z,12.80
2023-02-23T05:19:06.090Z,13.20
2023-02-23T05:19:38.795Z,13.10
2023-02-23T05:20:11.459Z,12.60
2023-02-23T05:20:44.116Z,12.40
2023-02-23T05:21:17.129Z,12.80
2023-02-23T05:21:43.382Z,12.80
2023-02-23T05:22:16.047Z,12.50
2023-02-23T05:22:48.742Z,13.30
2023-02-23T05:23:21.392Z,13.00
2023-02-23T05:23:54.069Z,12.90
2023-02-23T05:24:26.729Z,13.20
2023-02-23T05:24:59.405Z,13.10
2023-02-23T05:25:32.092Z,12.80
2023-02-23T05:26:04.794Z,13.30
2023-02-23T05:26:37.431Z,13.90
2023-02-23T05:27:10.097Z,13.70
2023-02-23T05:27:42.781Z,13.60
2023-02-23T05:28:15.451Z,13.40
2023-02-23T05:28:48.126Z,13.50
2023-02-23T05:29:20.811Z,13.30
2023-02-23T05:29:53.476Z,14.00
2023-02-23T05:30:26.196Z,13.90
2023-02-23T05:30:58.905Z,14.30
2023-02-23T05:31:31.746Z,14.20
2023-02-23T05:32:04.519Z,13.90
2023-02-23T05:32:37.259Z,14.00
2023-02-23T05:33:09.908Z,13.70
2023-02-23T05:33:42.976Z,14.10
2023-02-23T05:34:09.195Z,13.90
2023-02-23T05:34:41.860Z,13.70
2023-02-23T05:35:14.541Z,14.00
2023-02-23T05:35:47.233Z,14.40
2023-02-23T05:36:19.882Z,15.00
2023-02-23T05:36:52.549Z,14.00
2023-02-23T05:37:25.214Z,14.30
2023-02-23T05:37:57.873Z,14.40
2023-02-23T05:38:30.546Z,14.90
2023-02-23T05:39:03.238Z,13.90
2023-02-23T05:39:35.887Z,14.30
2023-02-23T05:40:08.559Z,14.70
2023-02-23T05:40:41.230Z,14.50
2023-02-23T05:41:13.936Z,13.90
2023-02-23T05:41:46.583Z,14.60
2023-02-23T05:42:19.283Z,14.50
2023-02-23T05:42:50.339Z,14.60
2023-02-23T05:43:23.003Z,14.50
2023-02-23T05:43:55.679Z,14.30
2023-02-23T05:44:28.340Z,14.40
2023-02-23T05:45:01.034Z,14.60
2023-02-23T05:45:33.721Z,14.50
2023-02-23T05:46:06.393Z,14.10
2023-02-23T05:46:39.043Z,14.50
2023-02-23T05:47:11.717Z,15.20
2023-02-23T05:47:44.374Z,14.90
2023-02-23T05:48:17.066Z,15.00
2023-02-23T05:48:49.755Z,14.30
2023-02-23T05:49:22.436Z,15.90
2023-02-23T05:49:55.101Z,15.40
2023-02-23T05:50:27.784Z,15.00
2023-02-23T05:51:00.468Z,14.90
2023-02-23T05:51:33.139Z,14.60
2023-02-23T05:52:05.842Z,15.20
2023-02-23T05:52:38.502Z,15.70
2023-02-23T05:53:11.166Z,14.80
2023-02-23T05:53:43.851Z,15.10
2023-02-23T05:54:16.504Z,15.50
2023-02-23T05:54:49.192Z,14.80
2023-02-23T05:55:21.886Z,14.70
2023-02-23T05:55:54.546Z,15.00
2023-02-23T05:56:27.248Z,14.40
2023-02-23T05:57:01.797Z,15.00
2023-02-23T05:57:28.069Z,14.40
2023-02-23T05:58:00.731Z,15.30
2023-02-23T05:58:33.437Z,15.10
2023-02-23T05:59:06.067Z,14.80
2023-02-23T05:59:38.728Z,15.40
2023-02-23T06:00:11.420Z,14.70
2023-02-23T06:00:44.087Z,15.40
2023-02-23T06:01:16.895Z,14.60
2023-02-23T06:01:49.675Z,15.00
2023-02-23T06:02:22.384Z,15.20
2023-02-23T06:02:55.089Z,15.20
2023-02-23T06:03:27.757Z,14.90
2023-02-23T06:04:00.585Z,15.20
2023-02-23T06:04:33.292Z,14.50
2023-02-23T06:05:06.029Z,14.60
2023-02-23T06:05:38.672Z,15.20
2023-02-23T06:06:11.336Z,14.80
2023-02-23T06:06:44.005Z,14.70
2023-02-23T06:07:16.676Z,14.80
2023-02-23T06:07:49.361Z,14.70
2023-02-23T06:08:22.064Z,14.80
2023-02-23T06:08:54.724Z,15.60
2023-02-23T06:09:27.404Z,14.90
2023-02-23T06:10:00.126Z,14.70
2023-02-23T06:10:31.177Z,14.90
2023-02-23T06:11:03.876Z,15.00
2023-02-23T06:11:36.540Z,15.30
2023-02-23T06:12:09.183Z,14.50
2023-02-23T06:12:41.863Z,14.60
2023-02-23T06:13:14.535Z,14.60
2023-02-23T06:13:47.211Z,15.00
2023-02-23T06:14:19.886Z,14.90
2023-02-23T06:14:52.631Z,14.40
2023-02-23T06:15:25.289Z,14.30
2023-02-23T06:15:57.981Z,15.00
2023-02-23T06:16:30.768Z,14.50
2023-02-23T06:17:03.454Z,14.50
2023-02-23T06:17:36.123Z,14.90
2023-02-23T06:18:08.813Z,14.90
2023-02-23T06:18:41.489Z,14.80
2023-02-23T06:19:14.124Z,14.60
2023-02-23T06:19:46.798Z,14.70
2023-02-23T06:20:19.489Z,14.80
2023-02-23T06:20:52.159Z,14.60
2023-02-23T06:21:24.858Z,14.40
2023-02-23T06:21:57.509Z,14.60
2023-02-23T06:22:30.197Z,14.20
2023-02-23T06:23:02.867Z,14.70
2023-02-23T06:23:35.539Z,15.00
2023-02-23T06:24:08.263Z,14.00
2023-02-23T06:24:40.969Z,14.60
2023-02-23T06:25:13.636Z,14.30
2023-02-23T06:25:46.294Z,14.60
2023-02-23T06:26:18.968Z,15.20
2023-02-23T06:26:51.661Z,14.90
2023-02-23T06:27:24.301Z,13.80
2023-02-23T06:27:57.004Z,14.20
2023-02-23T06:28:29.662Z,14.40
2023-02-23T06:29:02.328Z,14.50
2023-02-23T06:29:35.006Z,15.00
2023-02-23T06:30:07.687Z,14.80
2023-02-23T06:30:40.396Z,15.00
2023-02-23T06:31:13.111Z,14.30
2023-02-23T06:31:45.804Z,14.60
2023-02-23T06:32:18.595Z,14.10
2023-02-23T06:32:51.256Z,14.30
2023-02-23T06:33:23.922Z,14.60
2023-02-23T06:33:56.603Z,14.40
2023-02-23T06:34:29.275Z,13.90
2023-02-23T06:35:01.952Z,14.40
2023-02-23T06:35:34.614Z,14.50
2023-02-23T06:36:07.281Z,13.90
2023-02-23T06:36:39.955Z,14.90
2023-02-23T06:37:12.630Z,14.70
2023-02-23T06:37:45.318Z,14.50
2023-02-23T06:38:17.968Z,14.70
2023-02-23T06:38:50.631Z,14.30
2023-02-23T06:39:23.299Z,13.90
2023-02-23T06:39:55.962Z,14.40
2023-02-23T06:40:28.647Z,14.80
2023-02-23T06:41:01.330Z,14.60
2023-02-23T06:41:33.994Z,13.80
2023-02-23T06:42:06.715Z,14.20
2023-02-23T06:42:39.399Z,14.00
2023-02-23T06:43:12.060Z,13.70
2023-02-23T06:43:44.736Z,14.70
2023-02-23T06:44:17.416Z,14.00
2023-02-23T06:44:50.075Z,13.80
2023-02-23T06:45:21.184Z,13.90
2023-02-23T06:45:53.848Z,14.00
2023-02-23T06:46:26.653Z,13.70
2023-02-23T06:46:59.317Z,14.20
2023-02-23T06:47:32.020Z,13.70
2023-02-23T06:48:04.695Z,13.80
2023-02-23T06:48:37.338Z,14.00
2023-02-23T06:49:10.008Z,13.70
2023-02-23T06:49:42.682Z,13.80
2023-02-23T06:50:15.374Z,13.20
2023-02-23T06:50:48.059Z,13.60
2023-02-23T06:51:21.148Z,13.30
2023-02-23T06:51:47.493Z,13.30
2023-02-23T06:52:20.155Z,13.00
2023-02-23T06:52:52.855Z,13.20
2023-02-23T06:53:25.501Z,13.70
2023-02-23T06:53:58.252Z,13.90
2023-02-23T06:54:30.888Z,14.10
2023-02-23T06:55:03.568Z,13.50
2023-02-23T06:55:36.248Z,13.80
2023-02-23T06:56:10.121Z,13.70
2023-02-23T06:56:37.158Z,13.10
2023-02-23T06:57:09.872Z,13.70
2023-02-23T06:57:42.494Z,13.30
2023-02-23T06:58:15.170Z,13.80
2023-02-23T06:58:47.840Z,13.80